sensor_id;sensor_type;location;lat;lon;timestamp;pressure;altitude;pressure_sealevel;temperature;humidity
4617;BME280;2321;42.704;23.384;2023-03-16T00:00:08;94578.03;;;3.39;100.00
4617;BME280;2321;42.704;23.384;2023-03-16T00:02:38;94578.38;;;3.36;100.00
4617;BME280;2321;42.704;23.384;2023-03-16T00:05:06;94580.00;;;3.45;100.00
4617;BME280;2321;42.704;23.384;2023-03-16T00:07:33;94582.63;;;3.45;100.00
4617;BME280;2321;42.704;23.384;2023-03-16T00:10:00;94586.56;;;3.50;100.00
4617;BME280;2321;42.704;23.384;2023-03-16T00:12:29;94581.97;;;3.43;100.00
4617;BME280;2321;42.704;23.384;2023-03-16T00:14:59;94584.78;;;3.33;100.00
4617;BME280;2321;42.704;23.384;2023-03-16T00:17:26;94598.94;;;3.32;100.00
4617;BME280;2321;42.704;23.384;2023-03-16T00:19:54;94594.81;;;3.30;100.00
4617;BME280;2321;42.704;23.384;2023-03-16T00:22:22;94595.00;;;3.28;100.00
4617;BME280;2321;42.704;23.384;2023-03-16T00:24:49;94598.59;;;3.27;100.00
4617;BME280;2321;42.704;23.384;2023-03-16T00:27:17;94595.66;;;3.22;100.00
4617;BME280;2321;42.704;23.384;2023-03-16T00:29:47;94591.06;;;3.15;100.00
4617;BME280;2321;42.704;23.384;2023-03-16T00:32:15;94594.81;;;3.13;100.00
4617;BME280;2321;42.704;23.384;2023-03-16T00:34:43;94596.97;;;3.18;100.00
4617;BME280;2321;42.704;23.384;2023-03-16T00:37:10;94598.13;;;3.15;100.00
4617;BME280;2321;42.704;23.384;2023-03-16T00:39:40;94602.72;;;3.13;100.00
4617;BME280;2321;42.704;23.384;2023-03-16T00:42:07;94609.31;;;3.09;100.00
4617;BME280;2321;42.704;23.384;2023-03-16T00:44:34;94613.56;;;3.10;100.00
4617;BME280;2321;42.704;23.384;2023-03-16T00:47:03;94627.06;;;3.07;100.00
4617;BME280;2321;42.704;23.384;2023-03-16T00:49:30;94615.88;;;3.04;100.00
4617;BME280;2321;42.704;23.384;2023-03-16T00:51:59;94612.09;;;2.90;100.00
4617;BME280;2321;42.704;23.384;2023-03-16T00:54:26;94614.72;;;2.90;100.00
4617;BME280;2321;42.704;23.384;2023-03-16T00:56:53;94608.47;;;2.83;100.00
4617;BME280;2321;42.704;23.384;2023-03-16T00:59:20;94607.00;;;2.80;100.00
4617;BME280;2321;42.704;23.384;2023-03-16T01:01:47;94616.34;;;2.75;100.00
4617;BME280;2321;42.704;23.384;2023-03-16T01:04:15;94621.75;;;2.73;100.00
4617;BME280;2321;42.704;23.384;2023-03-16T01:06:43;94618.34;;;2.72;100.00
4617;BME280;2321;42.704;23.384;2023-03-16T01:09:10;94616.69;;;2.71;100.00
4617;BME280;2321;42.704;23.384;2023-03-16T01:11:37;94616.50;;;2.65;100.00
4617;BME280;2321;42.704;23.384;2023-03-16T01:14:04;94609.63;;;2.64;100.00
4617;BME280;2321;42.704;23.384;2023-03-16T01:16:31;94616.50;;;2.65;100.00
4617;BME280;2321;42.704;23.384;2023-03-16T01:18:58;94617.31;;;2.65;100.00
4617;BME280;2321;42.704;23.384;2023-03-16T01:21:27;94614.88;;;2.64;100.00
4617;BME280;2321;42.704;23.384;2023-03-16T01:23:54;94619.31;;;2.63;100.00
4617;BME280;2321;42.704;23.384;2023-03-16T01:26:22;94618.31;;;2.64;100.00
4617;BME280;2321;42.704;23.384;2023-03-16T01:28:49;94612.72;;;2.59;100.00
4617;BME280;2321;42.704;23.384;2023-03-16T01:31:16;94620.28;;;2.54;100.00
4617;BME280;2321;42.704;23.384;2023-03-16T01:33:43;94623.88;;;2.53;100.00
4617;BME280;2321;42.704;23.384;2023-03-16T01:36:12;94619.28;;;2.55;100.00
4617;BME280;2321;42.704;23.384;2023-03-16T01:38:41;94622.91;;;2.54;100.00
4617;BME280;2321;42.704;23.384;2023-03-16T01:41:09;94623.03;;;2.52;100.00
4617;BME280;2321;42.704;23.384;2023-03-16T01:43:37;94627.00;;;2.56;100.00
4617;BME280;2321;42.704;23.384;2023-03-16T01:46:20;94635.72;;;2.57;100.00
4617;BME280;2321;42.704;23.384;2023-03-16T01:49:03;94640.47;;;2.53;100.00
4617;BME280;2321;42.704;23.384;2023-03-16T01:51:35;94638.00;;;2.52;100.00
4617;BME280;2321;42.704;23.384;2023-03-16T01:54:07;94647.53;;;2.53;100.00
4617;BME280;2321;42.704;23.384;2023-03-16T01:56:38;94651.94;;;2.52;100.00
4617;BME280;2321;42.704;23.384;2023-03-16T01:59:11;94646.56;;;2.54;100.00
4617;BME280;2321;42.704;23.384;2023-03-16T02:01:40;94651.13;;;2.52;100.00
4617;BME280;2321;42.704;23.384;2023-03-16T02:04:16;94652.13;;;2.42;100.00
4617;BME280;2321;42.704;23.384;2023-03-16T02:06:47;94652.91;;;2.43;100.00
4617;BME280;2321;42.704;23.384;2023-03-16T02:09:17;94654.06;;;2.40;100.00
4617;BME280;2321;42.704;23.384;2023-03-16T02:11:45;94662.25;;;2.28;100.00
4617;BME280;2321;42.704;23.384;2023-03-16T02:14:12;94664.56;;;2.32;100.00
4617;BME280;2321;42.704;23.384;2023-03-16T02:16:40;94658.63;;;2.30;100.00
4617;BME280;2321;42.704;23.384;2023-03-16T02:19:11;94660.09;;;2.24;100.00
4617;BME280;2321;42.704;23.384;2023-03-16T02:21:46;94665.97;;;2.17;100.00
4617;BME280;2321;42.704;23.384;2023-03-16T02:24:16;94669.25;;;2.20;100.00
4617;BME280;2321;42.704;23.384;2023-03-16T02:26:46;94680.09;;;2.16;100.00
4617;BME280;2321;42.704;23.384;2023-03-16T02:29:28;94680.22;;;2.15;100.00
4617;BME280;2321;42.704;23.384;2023-03-16T02:31:59;94678.41;;;2.07;100.00
4617;BME280;2321;42.704;23.384;2023-03-16T02:34:27;94699.06;;;2.02;100.00
4617;BME280;2321;42.704;23.384;2023-03-16T02:36:56;94686.91;;;2.01;100.00
4617;BME280;2321;42.704;23.384;2023-03-16T02:39:24;94685.94;;;2.02;100.00
4617;BME280;2321;42.704;23.384;2023-03-16T02:41:51;94685.94;;;2.02;100.00
4617;BME280;2321;42.704;23.384;2023-03-16T02:44:20;94676.38;;;1.92;100.00
4617;BME280;2321;42.704;23.384;2023-03-16T02:46:51;94693.59;;;1.95;100.00
4617;BME280;2321;42.704;23.384;2023-03-16T02:49:24;94686.69;;;1.94;100.00
4617;BME280;2321;42.704;23.384;2023-03-16T02:51:53;94681.44;;;1.94;100.00
4617;BME280;2321;42.704;23.384;2023-03-16T02:54:22;94689.19;;;1.95;100.00
4617;BME280;2321;42.704;23.384;2023-03-16T02:56:49;94691.28;;;1.92;100.00
4617;BME280;2321;42.704;23.384;2023-03-16T02:59:16;94689.19;;;1.95;100.00
4617;BME280;2321;42.704;23.384;2023-03-16T03:01:43;94689.84;;;1.98;100.00
4617;BME280;2321;42.704;23.384;2023-03-16T03:04:10;94690.16;;;1.94;100.00
4617;BME280;2321;42.704;23.384;2023-03-16T03:06:39;94699.00;;;1.93;100.00
4617;BME280;2321;42.704;23.384;2023-03-16T03:09:07;94704.06;;;1.87;100.00
4617;BME280;2321;42.704;23.384;2023-03-16T03:11:36;94706.31;;;1.81;100.00
4617;BME280;2321;42.704;23.384;2023-03-16T03:14:03;94718.34;;;1.84;100.00
4617;BME280;2321;42.704;23.384;2023-03-16T03:16:30;94712.69;;;1.79;100.00
4617;BME280;2321;42.704;23.384;2023-03-16T03:18:57;94719.91;;;1.77;100.00
4617;BME280;2321;42.704;23.384;2023-03-16T03:21:24;94702.69;;;1.74;100.00
4617;BME280;2321;42.704;23.384;2023-03-16T03:23:52;94714.44;;;1.70;100.00
4617;BME280;2321;42.704;23.384;2023-03-16T03:26:20;94723.97;;;1.71;100.00
4617;BME280;2321;42.704;23.384;2023-03-16T03:28:47;94713.31;;;1.72;100.00
4617;BME280;2321;42.704;23.384;2023-03-16T03:31:14;94712.66;;;1.70;100.00
4617;BME280;2321;42.704;23.384;2023-03-16T03:33:42;94715.72;;;1.66;100.00
4617;BME280;2321;42.704;23.384;2023-03-16T03:36:09;94712.97;;;1.67;100.00
4617;BME280;2321;42.704;23.384;2023-03-16T03:38:37;94711.31;;;1.66;100.00
4617;BME280;2321;42.704;23.384;2023-03-16T03:41:05;94725.47;;;1.73;100.00
4617;BME280;2321;42.704;23.384;2023-03-16T03:43:33;94726.22;;;1.66;100.00
4617;BME280;2321;42.704;23.384;2023-03-16T03:46:01;94731.13;;;1.60;100.00
4617;BME280;2321;42.704;23.384;2023-03-16T03:48:28;94736.53;;;1.59;100.00
4617;BME280;2321;42.704;23.384;2023-03-16T03:50:55;94735.84;;;1.57;100.00
4617;BME280;2321;42.704;23.384;2023-03-16T03:53:22;94748.00;;;1.58;100.00
4617;BME280;2321;42.704;23.384;2023-03-16T03:55:49;94750.47;;;1.59;100.00
4617;BME280;2321;42.704;23.384;2023-03-16T03:58:18;94753.59;;;1.63;100.00
4617;BME280;2321;42.704;23.384;2023-03-16T04:00:44;94755.56;;;1.61;100.00
4617;BME280;2321;42.704;23.384;2023-03-16T04:03:11;94765.09;;;1.62;100.00
4617;BME280;2321;42.704;23.384;2023-03-16T04:05:38;94757.34;;;1.60;100.00
4617;BME280;2321;42.704;23.384;2023-03-16T04:08:06;94755.88;;;1.58;100.00
4617;BME280;2321;42.704;23.384;2023-03-16T04:10:33;94762.91;;;1.57;100.00
4617;BME280;2321;42.704;23.384;2023-03-16T04:13:00;94771.06;;;1.54;100.00
4617;BME280;2321;42.704;23.384;2023-03-16T04:15:29;94764.03;;;1.55;100.00
4617;BME280;2321;42.704;23.384;2023-03-16T04:17:57;94761.09;;;1.58;100.00
4617;BME280;2321;42.704;23.384;2023-03-16T04:20:24;94759.84;;;1.62;100.00
4617;BME280;2321;42.704;23.384;2023-03-16T04:22:51;94758.84;;;1.63;100.00
4617;BME280;2321;42.704;23.384;2023-03-16T04:25:24;94769.44;;;1.71;100.00
4617;BME280;2321;42.704;23.384;2023-03-16T04:27:51;94775.66;;;1.70;100.00
4617;BME280;2321;42.704;23.384;2023-03-16T04:30:19;94780.91;;;1.70;100.00
4617;BME280;2321;42.704;23.384;2023-03-16T04:32:49;94784.41;;;1.79;100.00
4617;BME280;2321;42.704;23.384;2023-03-16T04:35:16;94782.75;;;1.78;100.00
4617;BME280;2321;42.704;23.384;2023-03-16T04:37:43;94796.16;;;1.75;100.00
4617;BME280;2321;42.704;23.384;2023-03-16T04:40:11;94806.22;;;1.80;100.00
4617;BME280;2321;42.704;23.384;2023-03-16T04:42:42;94798.06;;;1.83;100.00
4617;BME280;2321;42.704;23.384;2023-03-16T04:45:09;94802.34;;;1.84;100.00
4617;BME280;2321;42.704;23.384;2023-03-16T04:47:37;94805.63;;;1.86;100.00
4617;BME280;2321;42.704;23.384;2023-03-16T04:50:06;94810.88;;;1.86;100.00
4617;BME280;2321;42.704;23.384;2023-03-16T04:52:33;94814.34;;;1.87;100.00
4617;BME280;2321;42.704;23.384;2023-03-16T04:55:00;94817.69;;;1.79;100.00
4617;BME280;2321;42.704;23.384;2023-03-16T04:57:27;94829.38;;;1.84;100.00
4617;BME280;2321;42.704;23.384;2023-03-16T04:59:54;94823.25;;;1.76;100.00
4617;BME280;2321;42.704;23.384;2023-03-16T05:02:21;94821.38;;;1.86;100.00
4617;BME280;2321;42.704;23.384;2023-03-16T05:04:48;94828.25;;;1.87;100.00
4617;BME280;2321;42.704;23.384;2023-03-16T05:07:17;94830.75;;;1.89;100.00
4617;BME280;2321;42.704;23.384;2023-03-16T05:09:44;94838.75;;;1.87;100.00
4617;BME280;2321;42.704;23.384;2023-03-16T05:12:11;94833.84;;;1.84;100.00
4617;BME280;2321;42.704;23.384;2023-03-16T05:14:38;94835.78;;;1.82;100.00
4617;BME280;2321;42.704;23.384;2023-03-16T05:17:05;94835.09;;;1.80;100.00
4617;BME280;2321;42.704;23.384;2023-03-16T05:19:32;94843.34;;;1.85;100.00
4617;BME280;2321;42.704;23.384;2023-03-16T05:21:59;94844.34;;;1.84;100.00
4617;BME280;2321;42.704;23.384;2023-03-16T05:24:27;94862.84;;;1.82;100.00
4617;BME280;2321;42.704;23.384;2023-03-16T05:26:54;94862.03;;;1.82;100.00
4617;BME280;2321;42.704;23.384;2023-03-16T05:29:22;94856.09;;;1.80;100.00
4617;BME280;2321;42.704;23.384;2023-03-16T05:31:49;94859.56;;;1.80;100.00
4617;BME280;2321;42.704;23.384;2023-03-16T05:34:16;94859.41;;;1.82;100.00
4617;BME280;2321;42.704;23.384;2023-03-16T05:36:43;94855.28;;;1.79;100.00
4617;BME280;2321;42.704;23.384;2023-03-16T05:39:10;94865.00;;;1.87;100.00
4617;BME280;2321;42.704;23.384;2023-03-16T05:41:39;94860.91;;;1.84;100.00
4617;BME280;2321;42.704;23.384;2023-03-16T05:44:06;94866.16;;;1.84;100.00
4617;BME280;2321;42.704;23.384;2023-03-16T05:46:34;94863.38;;;1.86;100.00
4617;BME280;2321;42.704;23.384;2023-03-16T05:49:01;94881.09;;;1.84;100.00
4617;BME280;2321;42.704;23.384;2023-03-16T05:51:27;94887.31;;;1.83;100.00
4617;BME280;2321;42.704;23.384;2023-03-16T05:53:54;94878.97;;;1.88;100.00
4617;BME280;2321;42.704;23.384;2023-03-16T05:56:23;94891.59;;;1.84;100.00
4617;BME280;2321;42.704;23.384;2023-03-16T05:58:52;94881.69;;;1.78;100.00
4617;BME280;2321;42.704;23.384;2023-03-16T06:01:20;94880.16;;;1.75;100.00
4617;BME280;2321;42.704;23.384;2023-03-16T06:03:48;94890.00;;;1.73;100.00
4617;BME280;2321;42.704;23.384;2023-03-16T06:06:17;94902.69;;;1.78;100.00
4617;BME280;2321;42.704;23.384;2023-03-16T06:08:44;94896.75;;;1.76;100.00
4617;BME280;2321;42.704;23.384;2023-03-16T06:11:11;94897.75;;;1.74;100.00
4617;BME280;2321;42.704;23.384;2023-03-16T06:13:38;94896.22;;;1.72;100.00
4617;BME280;2321;42.704;23.384;2023-03-16T06:16:07;94904.03;;;1.82;100.00
4617;BME280;2321;42.704;23.384;2023-03-16T06:18:35;94912.91;;;1.81;100.00
4617;BME280;2321;42.704;23.384;2023-03-16T06:21:04;94919.78;;;1.82;100.00
4617;BME280;2321;42.704;23.384;2023-03-16T06:23:31;94914.09;;;1.87;100.00
4617;BME280;2321;42.704;23.384;2023-03-16T06:25:58;94919.34;;;1.87;100.00
4617;BME280;2321;42.704;23.384;2023-03-16T06:28:25;94927.88;;;1.89;100.00
4617;BME280;2321;42.704;23.384;2023-03-16T06:30:53;94925.78;;;1.92;100.00
4617;BME280;2321;42.704;23.384;2023-03-16T06:33:21;94921.88;;;1.96;100.00
4617;BME280;2321;42.704;23.384;2023-03-16T06:35:48;94936.22;;;2.02;100.00
4617;BME280;2321;42.704;23.384;2023-03-16T06:38:15;94933.59;;;2.02;100.00
4617;BME280;2321;42.704;23.384;2023-03-16T06:40:43;94939.00;;;2.01;100.00
4617;BME280;2321;42.704;23.384;2023-03-16T06:43:10;94943.28;;;2.02;100.00
4617;BME280;2321;42.704;23.384;2023-03-16T06:45:37;94939.06;;;2.09;100.00
4617;BME280;2321;42.704;23.384;2023-03-16T06:48:04;94943.88;;;2.14;100.00
4617;BME280;2321;42.704;23.384;2023-03-16T06:50:33;94951.88;;;2.12;100.00
4617;BME280;2321;42.704;23.384;2023-03-16T06:53:00;94958.63;;;2.15;100.00
4617;BME280;2321;42.704;23.384;2023-03-16T06:55:27;94959.34;;;2.17;100.00
4617;BME280;2321;42.704;23.384;2023-03-16T06:57:54;94963.91;;;2.15;100.00
4617;BME280;2321;42.704;23.384;2023-03-16T07:00:21;94964.88;;;2.14;100.00
4617;BME280;2321;42.704;23.384;2023-03-16T07:02:48;94973.91;;;2.11;100.00
4617;BME280;2321;42.704;23.384;2023-03-16T07:05:16;94970.97;;;2.14;100.00
4617;BME280;2321;42.704;23.384;2023-03-16T07:07:44;94980.78;;;2.12;100.00
4617;BME280;2321;42.704;23.384;2023-03-16T07:10:13;94976.66;;;2.10;100.00
4617;BME280;2321;42.704;23.384;2023-03-16T07:12:40;94985.44;;;2.18;100.00
4617;BME280;2321;42.704;23.384;2023-03-16T07:15:07;94985.22;;;2.12;100.00
4617;BME280;2321;42.704;23.384;2023-03-16T07:17:35;94983.72;;;2.09;100.00
4617;BME280;2321;42.704;23.384;2023-03-16T07:20:02;94991.16;;;2.14;100.00
4617;BME280;2321;42.704;23.384;2023-03-16T07:22:30;94993.84;;;2.22;100.00
4617;BME280;2321;42.704;23.384;2023-03-16T07:24:58;94993.03;;;2.22;100.00
4617;BME280;2321;42.704;23.384;2023-03-16T07:27:26;95006.75;;;2.15;100.00
4617;BME280;2321;42.704;23.384;2023-03-16T07:29:53;94999.69;;;2.16;100.00
4617;BME280;2321;42.704;23.384;2023-03-16T07:32:21;95001.38;;;2.17;100.00
4617;BME280;2321;42.704;23.384;2023-03-16T07:34:48;94999.69;;;2.16;100.00
4617;BME280;2321;42.704;23.384;2023-03-16T07:37:15;95007.28;;;2.19;100.00
4617;BME280;2321;42.704;23.384;2023-03-16T07:39:42;95007.88;;;2.31;100.00
4617;BME280;2321;42.704;23.384;2023-03-16T07:42:10;95007.94;;;2.39;100.00
4617;BME280;2321;42.704;23.384;2023-03-16T07:44:39;95013.06;;;2.41;100.00
4617;BME280;2321;42.704;23.384;2023-03-16T07:47:06;95014.56;;;2.44;100.00
4617;BME280;2321;42.704;23.384;2023-03-16T07:49:33;95021.63;;;2.43;100.00
4617;BME280;2321;42.704;23.384;2023-03-16T07:52:00;95021.03;;;2.49;100.00
4617;BME280;2321;42.704;23.384;2023-03-16T07:54:27;95029.13;;;2.56;100.00
4617;BME280;2321;42.704;23.384;2023-03-16T07:56:54;95017.66;;;2.57;100.00
4617;BME280;2321;42.704;23.384;2023-03-16T07:59:22;95025.59;;;2.66;100.00
4617;BME280;2321;42.704;23.384;2023-03-16T08:01:49;95024.25;;;2.61;100.00
4617;BME280;2321;42.704;23.384;2023-03-16T08:04:16;95027.75;;;2.70;100.00
4617;BME280;2321;42.704;23.384;2023-03-16T08:06:43;95028.47;;;2.72;100.00
4617;BME280;2321;42.704;23.384;2023-03-16T08:09:10;95026.72;;;2.81;100.00
4617;BME280;2321;42.704;23.384;2023-03-16T08:11:37;95042.84;;;2.87;100.00
4617;BME280;2321;42.704;23.384;2023-03-16T08:14:04;95031.19;;;2.89;100.00
4617;BME280;2321;42.704;23.384;2023-03-16T08:16:32;95030.63;;;3.04;100.00
4617;BME280;2321;42.704;23.384;2023-03-16T08:18:59;95046.41;;;3.04;100.00
4617;BME280;2321;42.704;23.384;2023-03-16T08:21:26;95059.78;;;3.11;100.00
4617;BME280;2321;42.704;23.384;2023-03-16T08:23:54;95047.59;;;3.10;100.00
4617;BME280;2321;42.704;23.384;2023-03-16T08:26:22;95054.75;;;3.18;100.00
4617;BME280;2321;42.704;23.384;2023-03-16T08:28:50;95056.59;;;3.25;100.00
4617;BME280;2321;42.704;23.384;2023-03-16T08:31:19;95059.22;;;3.25;100.00
4617;BME280;2321;42.704;23.384;2023-03-16T08:33:49;95055.31;;;3.30;100.00
4617;BME280;2321;42.704;23.384;2023-03-16T08:36:17;95062.88;;;3.33;100.00
4617;BME280;2321;42.704;23.384;2023-03-16T08:38:45;95056.34;;;3.37;100.00
4617;BME280;2321;42.704;23.384;2023-03-16T08:41:12;95059.16;;;3.44;100.00
4617;BME280;2321;42.704;23.384;2023-03-16T08:43:41;95057.66;;;3.41;100.00
4617;BME280;2321;42.704;23.384;2023-03-16T08:46:09;95064.28;;;3.45;100.00
4617;BME280;2321;42.704;23.384;2023-03-16T08:48:37;95068.38;;;3.40;100.00
4617;BME280;2321;42.704;23.384;2023-03-16T08:51:06;95082.81;;;3.35;100.00
4617;BME280;2321;42.704;23.384;2023-03-16T08:53:34;95070.13;;;3.31;100.00
4617;BME280;2321;42.704;23.384;2023-03-16T08:56:02;95078.69;;;3.33;100.00
4617;BME280;2321;42.704;23.384;2023-03-16T08:58:29;95079.00;;;3.30;100.00
4617;BME280;2321;42.704;23.384;2023-03-16T09:00:57;95081.94;;;3.26;100.00
4617;BME280;2321;42.704;23.384;2023-03-16T09:03:24;95077.41;;;3.37;100.00
4617;BME280;2321;42.704;23.384;2023-03-16T09:05:52;95085.38;;;3.27;100.00
4617;BME280;2321;42.704;23.384;2023-03-16T09:08:20;95086.22;;;3.28;100.00
4617;BME280;2321;42.704;23.384;2023-03-16T09:10:47;95090.44;;;3.20;100.00
4617;BME280;2321;42.704;23.384;2023-03-16T09:13:15;95089.00;;;3.26;100.00
4617;BME280;2321;42.704;23.384;2023-03-16T09:15:41;95093.50;;;3.34;100.00
4617;BME280;2321;42.704;23.384;2023-03-16T09:18:08;95081.84;;;3.36;100.00
4617;BME280;2321;42.704;23.384;2023-03-16T09:20:35;95089.63;;;3.46;100.00
4617;BME280;2321;42.704;23.384;2023-03-16T09:23:02;95094.91;;;3.46;100.00
4617;BME280;2321;42.704;23.384;2023-03-16T09:25:30;95094.78;;;3.56;100.00
4617;BME280;2321;42.704;23.384;2023-03-16T09:27:58;95090.97;;;3.51;100.00
4617;BME280;2321;42.704;23.384;2023-03-16T09:30:25;95095.91;;;3.54;100.00
4617;BME280;2321;42.704;23.384;2023-03-16T09:32:53;95097.94;;;3.60;100.00
4617;BME280;2321;42.704;23.384;2023-03-16T09:35:20;95101.53;;;3.59;100.00
4617;BME280;2321;42.704;23.384;2023-03-16T09:37:47;95099.41;;;3.63;100.00
4617;BME280;2321;42.704;23.384;2023-03-16T09:40:21;95091.69;;;3.61;100.00
4617;BME280;2321;42.704;23.384;2023-03-16T09:42:59;95090.53;;;3.64;100.00
4617;BME280;2321;42.704;23.384;2023-03-16T09:45:35;95090.75;;;3.70;100.00
4617;BME280;2321;42.704;23.384;2023-03-16T09:48:04;95096.50;;;3.74;100.00
4617;BME280;2321;42.704;23.384;2023-03-16T09:50:35;95107.72;;;3.76;100.00
4617;BME280;2321;42.704;23.384;2023-03-16T09:53:07;95096.19;;;3.77;100.00
4617;BME280;2321;42.704;23.384;2023-03-16T09:55:38;95099.53;;;3.88;100.00
4617;BME280;2321;42.704;23.384;2023-03-16T09:58:15;95108.41;;;3.87;100.00
4617;BME280;2321;42.704;23.384;2023-03-16T10:00:47;95101.66;;;3.84;100.00
4617;BME280;2321;42.704;23.384;2023-03-16T10:03:27;95104.63;;;3.81;100.00
4617;BME280;2321;42.704;23.384;2023-03-16T10:05:59;95118.00;;;3.88;100.00
4617;BME280;2321;42.704;23.384;2023-03-16T10:08:30;95113.97;;;3.75;100.00
4617;BME280;2321;42.704;23.384;2023-03-16T10:11:09;95111.69;;;3.80;100.00
4617;BME280;2321;42.704;23.384;2023-03-16T10:13:45;95116.16;;;3.80;100.00
4617;BME280;2321;42.704;23.384;2023-03-16T10:16:16;95106.34;;;3.64;100.00
4617;BME280;2321;42.704;23.384;2023-03-16T10:18:47;95108.81;;;3.65;100.00
4617;BME280;2321;42.704;23.384;2023-03-16T10:21:16;95104.38;;;3.66;100.00
4617;BME280;2321;42.704;23.384;2023-03-16T10:23:44;95108.03;;;3.73;100.00
4617;BME280;2321;42.704;23.384;2023-03-16T10:26:15;95089.09;;;3.69;100.00
4617;BME280;2321;42.704;23.384;2023-03-16T10:28:45;95105.66;;;3.88;100.00
4617;BME280;2321;42.704;23.384;2023-03-16T10:31:13;95100.91;;;3.92;100.00
4617;BME280;2321;42.704;23.384;2023-03-16T10:33:42;95106.03;;;4.02;100.00
4617;BME280;2321;42.704;23.384;2023-03-16T10:36:14;95102.94;;;4.07;100.00
4617;BME280;2321;42.704;23.384;2023-03-16T10:38:44;95093.03;;;4.09;100.00
4617;BME280;2321;42.704;23.384;2023-03-16T10:41:23;95097.03;;;4.13;100.00
4617;BME280;2321;42.704;23.384;2023-03-16T10:43:54;95104.63;;;4.16;100.00
4617;BME280;2321;42.704;23.384;2023-03-16T10:46:24;95098.53;;;4.24;100.00
4617;BME280;2321;42.704;23.384;2023-03-16T10:48:53;95102.16;;;4.23;100.00
4617;BME280;2321;42.704;23.384;2023-03-16T10:51:26;95102.94;;;4.15;100.00
4617;BME280;2321;42.704;23.384;2023-03-16T10:53:56;95110.88;;;4.23;100.00
4617;BME280;2321;42.704;23.384;2023-03-16T10:56:32;95112.06;;;4.29;100.00
4617;BME280;2321;42.704;23.384;2023-03-16T10:59:11;95104.97;;;4.30;100.00
4617;BME280;2321;42.704;23.384;2023-03-16T11:01:44;95097.56;;;4.33;100.00
4617;BME280;2321;42.704;23.384;2023-03-16T11:04:14;95100.72;;;4.37;100.00
4617;BME280;2321;42.704;23.384;2023-03-16T11:06:53;95099.44;;;4.50;100.00
4617;BME280;2321;42.704;23.384;2023-03-16T11:09:23;95104.06;;;4.47;100.00
4617;BME280;2321;42.704;23.384;2023-03-16T11:11:52;95093.16;;;4.42;100.00
4617;BME280;2321;42.704;23.384;2023-03-16T11:14:24;95108.50;;;4.55;100.00
4617;BME280;2321;42.704;23.384;2023-03-16T11:16:58;95095.97;;;4.57;100.00
4617;BME280;2321;42.704;23.384;2023-03-16T11:19:28;95095.00;;;4.58;100.00
4617;BME280;2321;42.704;23.384;2023-03-16T11:21:59;95100.59;;;4.64;100.00
4617;BME280;2321;42.704;23.384;2023-03-16T11:24:36;95103.41;;;4.62;100.00
4617;BME280;2321;42.704;23.384;2023-03-16T11:27:10;95109.53;;;4.63;100.00
4617;BME280;2321;42.704;23.384;2023-03-16T11:29:55;95101.56;;;4.54;100.00
4617;BME280;2321;42.704;23.384;2023-03-16T11:32:28;95106.84;;;4.46;100.00
4617;BME280;2321;42.704;23.384;2023-03-16T11:34:56;95110.13;;;4.48;100.00
4617;BME280;2321;42.704;23.384;2023-03-16T11:37:33;95109.47;;;4.46;100.00
4617;BME280;2321;42.704;23.384;2023-03-16T11:40:13;95105.34;;;4.43;100.00
4617;BME280;2321;42.704;23.384;2023-03-16T11:42:50;95106.19;;;4.44;100.00
4617;BME280;2321;42.704;23.384;2023-03-16T11:45:27;95116.84;;;4.34;100.00
4617;BME280;2321;42.704;23.384;2023-03-16T11:48:05;95104.97;;;4.30;100.00
4617;BME280;2321;42.704;23.384;2023-03-16T11:50:45;95116.97;;;4.24;100.00
4617;BME280;2321;42.704;23.384;2023-03-16T11:53:26;95112.84;;;4.21;100.00
4617;BME280;2321;42.704;23.384;2023-03-16T11:56:07;95108.56;;;4.20;100.00
4617;BME280;2321;42.704;23.384;2023-03-16T11:58:48;95111.56;;;4.25;100.00
4617;BME280;2321;42.704;23.384;2023-03-16T12:01:24;95110.25;;;4.30;100.00
4617;BME280;2321;42.704;23.384;2023-03-16T12:07:07;95109.59;;;4.36;100.00
4617;BME280;2321;42.704;23.384;2023-03-16T12:12:42;95125.09;;;4.31;100.00
4617;BME280;2321;42.704;23.384;2023-03-16T12:15:22;95126.53;;;4.25;100.00
4617;BME280;2321;42.704;23.384;2023-03-16T12:17:54;95131.78;;;4.17;100.00
4617;BME280;2321;42.704;23.384;2023-03-16T12:20:23;95123.69;;;4.10;100.00
4617;BME280;2321;42.704;23.384;2023-03-16T12:22:56;95116.41;;;4.03;100.00
4617;BME280;2321;42.704;23.384;2023-03-16T12:25:26;95138.78;;;3.99;100.00
4617;BME280;2321;42.704;23.384;2023-03-16T12:27:57;95134.50;;;3.98;100.00
4617;BME280;2321;42.704;23.384;2023-03-16T12:30:34;95131.81;;;3.90;100.00
4617;BME280;2321;42.704;23.384;2023-03-16T12:33:08;95139.78;;;3.98;100.00
4617;BME280;2321;42.704;23.384;2023-03-16T12:35:43;95148.00;;;3.95;100.00
4617;BME280;2321;42.704;23.384;2023-03-16T12:38:39;95144.44;;;4.05;100.00
4617;BME280;2321;42.704;23.384;2023-03-16T12:41:19;95143.41;;;4.06;100.00
4617;BME280;2321;42.704;23.384;2023-03-16T12:43:58;95137.00;;;4.08;100.00
4617;BME280;2321;42.704;23.384;2023-03-16T12:46:31;95163.63;;;3.97;100.00
4617;BME280;2321;42.704;23.384;2023-03-16T12:49:06;95154.44;;;4.01;100.00
4617;BME280;2321;42.704;23.384;2023-03-16T12:51:35;95151.28;;;3.97;100.00
4617;BME280;2321;42.704;23.384;2023-03-16T12:54:03;95147.28;;;3.85;100.00
4617;BME280;2321;42.704;23.384;2023-03-16T12:56:33;95161.09;;;3.87;100.00
4617;BME280;2321;42.704;23.384;2023-03-16T12:59:03;95160.84;;;3.72;100.00
4617;BME280;2321;42.704;23.384;2023-03-16T13:01:37;95161.47;;;3.65;100.00
4617;BME280;2321;42.704;23.384;2023-03-16T13:04:10;95166.44;;;3.68;100.00
4617;BME280;2321;42.704;23.384;2023-03-16T13:06:42;95173.13;;;3.63;100.00
4617;BME280;2321;42.704;23.384;2023-03-16T13:09:10;95165.19;;;3.54;100.00
4617;BME280;2321;42.704;23.384;2023-03-16T13:11:42;95165.13;;;3.46;100.00
4617;BME280;2321;42.704;23.384;2023-03-16T13:14:29;95156.56;;;3.25;100.00
4617;BME280;2321;42.704;23.384;2023-03-16T13:17:06;95171.03;;;3.21;100.00
4617;BME280;2321;42.704;23.384;2023-03-16T13:22:43;95174.69;;;3.29;100.00
4617;BME280;2321;42.704;23.384;2023-03-16T13:25:15;95165.47;;;3.24;100.00
4617;BME280;2321;42.704;23.384;2023-03-16T13:27:45;95182.28;;;3.32;100.00
4617;BME280;2321;42.704;23.384;2023-03-16T13:30:20;95179.47;;;3.25;100.00